Time;durP1;ratioP1;P1;durP2;ratioP2;P2;SDS_P1;SDS_P2;PMS_P1;PMS_P2;Temp;Humidity;BMP_temperature;BMP_pressure;BME280_temperature;BME280_humidity;BME280_pressure;Samples;Min_cycle;Max_cycle;Signal;HPM_P1;HPM_P2
2023/05/23 00:01:39;;;;;;;69.18;41.95;;;14.90;94.90;;;;;;5014426;28;90701;-76
2023/05/23 00:04:05;;;;;;;69.97;43.38;;;15.00;94.80;;;;;;5015918;28;88131;-75
2023/05/23 00:06:31;;;;;;;55.78;37.03;;;15.00;94.80;;;;;;5016037;28;88413;-76
2023/05/23 00:08:57;;;;;;;65.65;41.55;;;15.00;94.60;;;;;;5015595;28;87635;-76
2023/05/23 00:11:27;;;;;;;65.55;40.53;;;14.90;94.60;;;;;;5015277;28;88696;-75
2023/05/23 00:13:54;;;;;;;64.15;41.28;;;14.90;94.80;;;;;;5012865;28;90997;-76
2023/05/23 00:16:20;;;;;;;73.30;41.72;;;14.80;94.80;;;;;;5015543;28;87453;-75
2023/05/23 00:18:46;;;;;;;69.20;42.35;;;14.80;94.70;;;;;;5016682;28;87945;-76
2023/05/23 00:21:15;;;;;;;74.68;45.38;;;14.70;94.80;;;;;;5015052;28;88352;-75
2023/05/23 00:23:41;;;;;;;70.30;42.83;;;14.60;95.00;;;;;;5014632;28;90069;-76
2023/05/23 00:26:10;;;;;;;68.82;43.22;;;14.60;95.10;;;;;;5014955;28;87857;-76
2023/05/23 00:28:39;;;;;;;69.82;44.22;;;14.50;95.10;;;;;;5016015;28;87615;-76
2023/05/23 00:31:05;;;;;;;71.78;43.92;;;14.40;95.10;;;;;;5014922;28;89638;-75
2023/05/23 00:33:32;;;;;;;68.55;44.97;;;14.40;95.30;;;;;;5015688;28;89084;-76
2023/05/23 00:35:58;;;;;;;69.82;45.35;;;14.30;95.20;;;;;;5014721;28;87619;-76
2023/05/23 00:38:25;;;;;;;79.88;47.28;;;14.30;95.40;;;;;;5014460;28;87878;-76
2023/05/23 00:40:51;;;;;;;69.47;43.97;;;14.20;95.60;;;;;;5015354;28;87553;-76
2023/05/23 00:43:17;;;;;;;71.47;45.97;;;14.10;95.50;;;;;;5015022;28;88037;-76
2023/05/23 00:45:42;;;;;;;70.68;44.33;;;14.10;95.50;;;;;;5016213;28;87624;-76
2023/05/23 00:48:08;;;;;;;80.72;44.42;;;14.00;95.70;;;;;;5015392;28;87473;-76
2023/05/23 00:50:35;;;;;;;82.78;47.28;;;14.00;95.90;;;;;;5013607;28;93993;-76
2023/05/23 00:53:01;;;;;;;76.70;46.08;;;13.90;96.10;;;;;;5015374;28;88772;-76
2023/05/23 00:55:27;;;;;;;72.93;44.33;;;13.90;96.20;;;;;;5014895;28;88585;-76
2023/05/23 00:57:57;;;;;;;88.72;47.83;;;13.80;96.10;;;;;;5015785;28;87762;-76
2023/05/23 01:00:24;;;;;;;75.40;45.97;;;13.80;96.20;;;;;;5014945;28;88618;-76
2023/05/23 01:02:50;;;;;;;85.50;47.60;;;13.70;96.10;;;;;;5014406;28;88327;-76
2023/05/23 01:05:17;;;;;;;98.07;50.97;;;13.70;96.40;;;;;;5013522;28;87104;-76
2023/05/23 01:07:46;;;;;;;84.05;48.80;;;13.70;96.50;;;;;;5014797;28;87842;-76
2023/05/23 01:10:13;;;;;;;81.55;47.05;;;13.70;96.40;;;;;;5013857;28;88252;-76
2023/05/23 01:13:07;;;;;;;79.90;45.70;;;13.70;96.60;;;;;;5015865;28;89004;-76
2023/05/23 01:15:42;;;;;;;75.57;44.63;;;13.70;96.60;;;;;;5015286;28;88643;-76
2023/05/23 01:18:23;;;;;;;76.32;45.63;;;13.70;96.60;;;;;;5014390;28;87437;-76
2023/05/23 01:20:54;;;;;;;80.13;46.05;;;13.80;96.60;;;;;;5014423;28;89331;-75
2023/05/23 01:23:23;;;;;;;77.57;43.03;;;13.80;96.70;;;;;;5013671;28;89989;-76
2023/05/23 01:25:58;;;;;;;69.43;39.15;;;13.80;96.70;;;;;;5011172;28;87739;-76
2023/05/23 01:28:30;;;;;;;68.68;39.38;;;13.80;96.70;;;;;;5010285;28;87729;-76
2023/05/23 01:30:57;;;;;;;70.47;39.40;;;13.80;96.70;;;;;;5013078;28;88914;-76
2023/05/23 01:33:25;;;;;;;61.08;36.40;;;13.80;96.80;;;;;;5010817;28;88381;-76
2023/05/23 01:35:51;;;;;;;59.35;34.97;;;13.90;96.60;;;;;;5012716;28;87922;-76
2023/05/23 01:38:17;;;;;;;60.22;34.45;;;13.90;96.50;;;;;;5014829;28;88464;-75
2023/05/23 01:40:42;;;;;;;53.60;34.13;;;13.90;96.40;;;;;;5013497;28;89174;-76
2023/05/23 01:43:09;;;;;;;58.15;34.40;;;13.90;96.50;;;;;;5013964;28;88487;-75
2023/05/23 01:45:35;;;;;;;58.35;34.08;;;14.00;96.30;;;;;;5014638;28;88303;-76
2023/05/23 01:48:02;;;;;;;57.55;34.53;;;14.00;96.30;;;;;;5013347;28;87973;-76
2023/05/23 01:50:29;;;;;;;51.03;32.67;;;14.00;96.20;;;;;;5013531;28;88800;-76
2023/05/23 01:52:56;;;;;;;55.05;33.28;;;14.00;96.40;;;;;;5013074;28;88632;-76
2023/05/23 01:55:23;;;;;;;53.38;31.13;;;14.00;96.00;;;;;;5013652;28;87659;-76
2023/05/23 01:57:50;;;;;;;54.53;33.13;;;14.10;96.00;;;;;;5013831;28;87726;-76
2023/05/23 02:00:17;;;;;;;52.10;32.08;;;14.10;96.00;;;;;;5013755;28;88833;-76
2023/05/23 02:02:43;;;;;;;52.13;32.90;;;14.10;95.90;;;;;;5012912;28;89026;-76
2023/05/23 02:05:09;;;;;;;55.13;32.83;;;14.10;95.80;;;;;;5012704;28;88680;-76
2023/05/23 02:07:35;;;;;;;48.35;29.88;;;14.10;95.90;;;;;;5013389;28;87223;-76
2023/05/23 02:10:02;;;;;;;47.28;29.50;;;14.10;95.80;;;;;;5013394;28;89088;-76
2023/05/23 02:12:28;;;;;;;51.67;31.35;;;14.10;95.90;;;;;;5012849;28;89036;-76
2023/05/23 02:14:54;;;;;;;46.45;28.52;;;14.10;95.90;;;;;;5013541;28;87700;-76
2023/05/23 02:17:23;;;;;;;47.10;28.35;;;14.10;95.80;;;;;;5012091;28;87453;-76
2023/05/23 02:19:48;;;;;;;45.38;28.65;;;14.10;95.70;;;;;;5016133;28;88014;-76
2023/05/23 02:22:14;;;;;;;46.25;29.83;;;14.10;95.70;;;;;;5015803;28;88735;-76
2023/05/23 02:24:40;;;;;;;48.72;29.30;;;14.10;95.70;;;;;;5017252;28;87593;-75
2023/05/23 02:27:06;;;;;;;45.33;28.30;;;14.10;95.90;;;;;;5017307;28;87917;-76
2023/05/23 02:29:32;;;;;;;52.03;29.42;;;14.10;95.60;;;;;;5017219;28;88139;-76
2023/05/23 02:31:57;;;;;;;46.97;28.98;;;14.10;95.60;;;;;;5016311;28;88471;-76
2023/05/23 02:34:23;;;;;;;42.97;27.58;;;14.10;95.50;;;;;;5015312;28;88639;-76
2023/05/23 02:36:50;;;;;;;43.47;27.52;;;14.10;95.60;;;;;;5016759;28;87922;-75
2023/05/23 02:39:16;;;;;;;40.53;26.73;;;14.20;95.60;;;;;;5015079;28;89908;-76
2023/05/23 02:41:42;;;;;;;40.15;23.92;;;14.20;95.40;;;;;;5017088;28;88515;-75
2023/05/23 02:44:07;;;;;;;31.45;20.98;;;14.20;95.40;;;;;;5017194;28;87256;-75
2023/05/23 02:46:33;;;;;;;28.13;19.85;;;14.20;95.00;;;;;;5016221;28;87529;-76
2023/05/23 02:48:59;;;;;;;34.78;20.02;;;14.20;94.90;;;;;;5017641;28;87536;-76
2023/05/23 02:51:25;;;;;;;29.17;18.25;;;14.20;94.70;;;;;;5017294;28;88415;-76
2023/05/23 02:53:50;;;;;;;25.45;15.93;;;14.20;94.60;;;;;;5016320;28;87651;-75
2023/05/23 02:56:17;;;;;;;29.48;17.27;;;14.20;94.40;;;;;;5016862;28;87370;-76
2023/05/23 02:58:43;;;;;;;37.25;19.67;;;14.30;94.60;;;;;;5014629;28;89237;-76
2023/05/23 03:01:09;;;;;;;29.48;19.40;;;14.30;94.60;;;;;;5016159;28;87780;-75
2023/05/23 03:03:35;;;;;;;32.95;20.40;;;14.30;94.70;;;;;;5017490;28;87338;-75
2023/05/23 03:06:02;;;;;;;32.85;21.73;;;14.30;94.70;;;;;;5015780;28;87849;-76
2023/05/23 03:08:27;;;;;;;21.15;14.85;;;14.30;94.80;;;;;;5014272;28;89944;-76
2023/05/23 03:10:53;;;;;;;27.80;17.27;;;14.30;94.20;;;;;;5015224;28;87519;-76
2023/05/23 03:13:19;;;;;;;30.02;19.83;;;14.30;94.40;;;;;;5015486;28;87872;-76
2023/05/23 03:15:45;;;;;;;26.30;17.27;;;14.30;94.90;;;;;;5016597;28;87133;-75
2023/05/23 03:18:11;;;;;;;25.88;15.00;;;14.30;94.20;;;;;;5014737;28;89047;-75
2023/05/23 03:20:37;;;;;;;22.95;14.13;;;14.30;94.10;;;;;;5015990;28;88191;-75
2023/05/23 03:23:02;;;;;;;20.40;12.43;;;14.30;93.90;;;;;;5015036;28;88673;-76
2023/05/23 03:25:28;;;;;;;25.23;11.90;;;14.30;93.60;;;;;;5015201;28;88038;-75
2023/05/23 03:27:54;;;;;;;23.33;12.80;;;14.20;93.50;;;;;;5023572;28;90893;-75
2023/05/23 03:30:20;;;;;;;23.58;13.52;;;14.20;93.60;;;;;;5015448;28;88527;-76
2023/05/23 03:32:46;;;;;;;23.13;12.65;;;14.20;93.40;;;;;;5016686;28;87345;-75
2023/05/23 03:35:11;;;;;;;20.75;11.95;;;14.20;93.40;;;;;;5013678;28;89105;-76
2023/05/23 03:37:37;;;;;;;22.88;12.57;;;14.20;93.40;;;;;;5015806;28;87980;-75
2023/05/23 03:40:03;;;;;;;23.35;12.23;;;14.20;92.90;;;;;;5017375;28;87944;-76
2023/05/23 03:42:29;;;;;;;25.02;12.32;;;14.20;93.10;;;;;;5015621;28;87586;-76
2023/05/23 03:44:55;;;;;;;21.77;11.90;;;14.10;93.00;;;;;;5013695;28;88501;-75
2023/05/23 03:47:22;;;;;;;22.83;12.15;;;14.10;93.10;;;;;;5015265;28;89384;-76
2023/05/23 03:49:48;;;;;;;18.30;11.07;;;14.10;93.10;;;;;;5014380;28;92402;-75
2023/05/23 03:52:14;;;;;;;19.98;11.75;;;14.10;93.00;;;;;;5015119;28;88412;-76
2023/05/23 03:54:40;;;;;;;22.35;11.90;;;14.10;93.10;;;;;;5016710;28;87731;-76
2023/05/23 03:57:06;;;;;;;20.65;12.02;;;14.10;93.20;;;;;;5015625;28;88034;-76
2023/05/23 03:59:32;;;;;;;21.42;13.02;;;14.10;93.00;;;;;;5014934;28;88151;-75
2023/05/23 04:01:59;;;;;;;21.75;12.40;;;14.10;93.10;;;;;;5015191;28;87382;-76
2023/05/23 04:04:28;;;;;;;23.02;13.05;;;14.10;93.30;;;;;;5014198;28;87147;-76
2023/05/23 04:06:54;;;;;;;24.27;12.85;;;14.10;93.20;;;;;;5015783;28;88671;-76
2023/05/23 04:09:20;;;;;;;20.70;12.07;;;14.10;93.40;;;;;;5015028;28;88126;-76
2023/05/23 04:11:46;;;;;;;31.25;14.38;;;14.10;93.20;;;;;;5015725;28;88247;-76
2023/05/23 04:14:12;;;;;;;22.58;12.23;;;14.10;93.60;;;;;;5014981;28;88043;-76
2023/05/23 04:16:40;;;;;;;23.05;12.35;;;14.00;93.40;;;;;;5013173;28;90639;-76
2023/05/23 04:19:06;;;;;;;22.70;13.18;;;14.00;93.60;;;;;;5015738;28;88388;-75
2023/05/23 04:21:35;;;;;;;19.92;12.73;;;14.00;93.60;;;;;;5014381;28;87793;-75
2023/05/23 04:24:01;;;;;;;27.13;14.00;;;14.00;93.70;;;;;;5015570;28;87478;-75
2023/05/23 04:26:27;;;;;;;24.02;13.88;;;14.00;93.70;;;;;;5021422;28;90941;-76
2023/05/23 04:28:53;;;;;;;24.35;13.57;;;13.90;93.70;;;;;;5015699;28;87483;-76
2023/05/23 04:31:22;;;;;;;26.95;13.55;;;14.00;94.00;;;;;;5013445;28;87488;-76
2023/05/23 04:33:48;;;;;;;23.05;13.38;;;14.00;93.70;;;;;;5015289;28;87625;-75
2023/05/23 04:36:14;;;;;;;19.27;12.68;;;13.90;93.70;;;;;;5014626;28;89444;-76
2023/05/23 04:38:40;;;;;;;27.27;12.43;;;14.00;93.90;;;;;;5014876;28;90054;-75
2023/05/23 04:41:08;;;;;;;27.23;13.05;;;14.00;93.80;;;;;;5014802;28;87403;-75
2023/05/23 04:43:36;;;;;;;21.17;12.27;;;14.00;93.90;;;;;;5014085;28;87605;-75
2023/05/23 04:46:02;;;;;;;20.20;12.55;;;14.00;93.40;;;;;;5015790;28;89322;-75
2023/05/23 04:48:28;;;;;;;20.38;11.48;;;14.00;93.40;;;;;;5014432;28;87682;-76
2023/05/23 04:50:55;;;;;;;20.25;11.73;;;14.00;93.60;;;;;;5014668;28;87826;-76
2023/05/23 04:53:21;;;;;;;26.48;12.50;;;14.00;93.70;;;;;;5013564;28;89867;-76
2023/05/23 04:55:47;;;;;;;22.83;13.38;;;14.00;93.80;;;;;;5014318;28;87717;-76
2023/05/23 04:58:13;;;;;;;23.35;13.40;;;14.00;93.90;;;;;;5014424;28;88842;-76
2023/05/23 05:00:40;;;;;;;20.92;14.20;;;13.90;94.20;;;;;;5014575;28;88773;-76
2023/05/23 05:03:05;;;;;;;25.15;14.57;;;14.00;94.40;;;;;;5014194;28;87974;-76
2023/05/23 05:05:31;;;;;;;20.92;13.30;;;13.90;94.40;;;;;;5014988;28;88133;-76
2023/05/23 05:07:57;;;;;;;24.75;12.95;;;13.90;94.40;;;;;;5014360;28;87472;-76
2023/05/23 05:10:22;;;;;;;21.38;13.43;;;13.90;94.60;;;;;;5014335;28;87761;-76
2023/05/23 05:12:48;;;;;;;24.88;13.95;;;13.90;94.50;;;;;;5015844;28;87611;-76
2023/05/23 05:15:18;;;;;;;24.77;13.85;;;13.90;94.70;;;;;;5014396;28;88896;-75
2023/05/23 05:17:44;;;;;;;23.85;12.88;;;13.90;94.60;;;;;;5014294;28;87937;-76
2023/05/23 05:20:10;;;;;;;21.05;12.50;;;14.00;94.50;;;;;;5014852;28;87396;-75
2023/05/23 05:22:39;;;;;;;25.95;13.65;;;13.90;94.60;;;;;;5014080;28;87874;-76
2023/05/23 05:25:06;;;;;;;22.98;13.75;;;13.90;94.60;;;;;;5014361;28;89581;-76
2023/05/23 05:27:32;;;;;;;25.92;13.63;;;13.90;94.50;;;;;;5013396;28;94908;-75
2023/05/23 05:30:03;;;;;;;24.35;13.43;;;13.90;94.70;;;;;;5015117;28;87443;-75
2023/05/23 05:32:30;;;;;;;24.20;13.45;;;13.90;94.60;;;;;;5014368;28;87746;-75
2023/05/23 05:34:55;;;;;;;25.27;13.55;;;13.90;94.70;;;;;;5014075;28;88683;-75
2023/05/23 05:37:21;;;;;;;25.52;13.43;;;13.90;94.70;;;;;;5012580;28;90061;-75
2023/05/23 05:39:47;;;;;;;22.20;13.57;;;13.90;94.80;;;;;;5015737;28;88448;-76
2023/05/23 05:42:12;;;;;;;25.58;13.93;;;14.00;94.70;;;;;;5014598;28;86884;-76
2023/05/23 05:44:38;;;;;;;24.48;13.48;;;13.90;94.70;;;;;;5012866;28;87881;-75
2023/05/23 05:47:04;;;;;;;27.77;14.38;;;14.00;94.70;;;;;;5013862;28;87683;-76
2023/05/23 05:49:30;;;;;;;28.67;14.23;;;14.00;94.60;;;;;;5014620;28;88473;-75
2023/05/23 05:51:55;;;;;;;25.67;13.98;;;14.00;94.60;;;;;;5016249;28;88020;-76
2023/05/23 05:54:21;;;;;;;24.85;14.15;;;14.10;94.40;;;;;;5017556;28;87829;-76
2023/05/23 05:56:47;;;;;;;23.65;14.48;;;14.10;94.10;;;;;;5017847;28;87604;-77
2023/05/23 05:59:12;;;;;;;21.67;13.23;;;14.10;94.20;;;;;;5017240;28;87717;-76
2023/05/23 06:01:38;;;;;;;21.20;13.05;;;14.20;94.20;;;;;;5017179;28;87471;-75
2023/05/23 06:04:04;;;;;;;27.63;14.60;;;14.20;94.30;;;;;;5018278;28;87727;-75
2023/05/23 06:06:30;;;;;;;31.40;13.98;;;14.20;94.30;;;;;;5017606;28;88330;-76
2023/05/23 06:08:56;;;;;;;24.17;13.55;;;14.30;94.10;;;;;;5026004;28;87664;-78
2023/05/23 06:11:21;;;;;;;31.73;13.45;;;14.20;94.10;;;;;;5016667;28;87753;-77
2023/05/23 06:13:47;;;;;;;22.67;12.80;;;14.20;94.10;;;;;;5017053;28;89797;-76
2023/05/23 06:16:14;;;;;;;25.95;13.70;;;14.20;94.30;;;;;;5017188;28;89438;-76
2023/05/23 06:18:40;;;;;;;28.85;14.82;;;14.30;94.10;;;;;;5018156;28;87546;-76
2023/05/23 06:21:05;;;;;;;25.85;14.20;;;14.30;94.20;;;;;;5015447;28;89440;-76
2023/05/23 06:23:31;;;;;;;29.40;15.15;;;14.30;94.10;;;;;;5016737;28;88259;-77
2023/05/23 06:25:58;;;;;;;28.05;14.48;;;14.30;94.10;;;;;;5017150;28;88447;-78
2023/05/23 06:28:24;;;;;;;24.00;14.63;;;14.30;93.90;;;;;;5016265;28;87415;-77
2023/05/23 06:30:50;;;;;;;21.05;13.88;;;14.30;93.90;;;;;;5018038;28;86855;-77
2023/05/23 06:33:15;;;;;;;26.25;13.93;;;14.30;94.00;;;;;;5017602;28;87361;-76
2023/05/23 06:35:42;;;;;;;24.55;14.98;;;14.40;93.90;;;;;;5016755;28;87529;-77
2023/05/23 06:38:07;;;;;;;23.35;14.45;;;14.40;93.90;;;;;;5015777;28;88328;-76
2023/05/23 06:40:33;;;;;;;23.23;14.43;;;14.50;93.90;;;;;;5016148;28;87550;-77
2023/05/23 06:42:59;;;;;;;20.92;13.75;;;14.60;93.50;;;;;;5016082;28;90800;-77
2023/05/23 06:45:25;;;;;;;28.73;13.93;;;14.60;93.50;;;;;;5015902;28;88829;-78
2023/05/23 06:47:50;;;;;;;22.10;14.27;;;14.60;93.40;;;;;;5017000;28;87033;-77
2023/05/23 06:50:20;;;;;;;26.85;13.77;;;14.60;93.50;;;;;;5016246;28;88043;-77
2023/05/23 06:52:45;;;;;;;24.25;14.10;;;14.60;93.40;;;;;;5015681;28;88258;-78
2023/05/23 06:55:16;;;;;;;32.50;15.13;;;14.60;93.50;;;;;;5017513;28;88525;-77
2023/05/23 06:57:43;;;;;;;25.65;14.80;;;14.60;93.30;;;;;;5015201;28;87876;-78
2023/05/23 07:00:12;;;;;;;23.17;13.82;;;14.50;93.40;;;;;;5015213;28;87902;-77
2023/05/23 07:02:38;;;;;;;27.73;15.60;;;14.50;93.50;;;;;;4996919;28;89725;-77
2023/05/23 07:05:04;;;;;;;29.05;15.20;;;14.50;93.60;;;;;;5013474;28;90359;-77
2023/05/23 07:07:30;;;;;;;25.48;13.15;;;14.50;93.90;;;;;;5014760;28;87400;-77
2023/05/23 07:09:56;;;;;;;28.85;13.48;;;14.50;92.60;;;;;;5015628;28;87742;-77
2023/05/23 07:12:21;;;;;;;22.92;12.32;;;14.40;92.60;;;;;;5015852;28;88505;-78
2023/05/23 07:14:47;;;;;;;27.95;12.57;;;14.40;92.40;;;;;;5016291;28;87522;-77
2023/05/23 07:17:13;;;;;;;25.83;14.52;;;14.40;92.30;;;;;;5014962;28;87795;-78
2023/05/23 07:19:38;;;;;;;26.67;13.32;;;14.50;92.10;;;;;;5015650;28;87265;-77
2023/05/23 07:22:04;;;;;;;30.02;12.35;;;14.50;92.30;;;;;;5016253;28;88335;-77
2023/05/23 07:24:30;;;;;;;33.95;13.52;;;14.40;92.00;;;;;;5016519;28;92842;-77
2023/05/23 07:26:55;;;;;;;30.85;12.77;;;14.40;92.10;;;;;;5015444;28;88320;-76
2023/05/23 07:29:21;;;;;;;25.52;12.02;;;14.40;91.80;;;;;;5016280;28;87688;-76
2023/05/23 07:31:47;;;;;;;31.13;13.15;;;14.40;92.00;;;;;;5019403;28;87752;-76
2023/05/23 07:34:12;;;;;;;20.73;11.40;;;14.40;91.90;;;;;;5014997;28;87553;-76
2023/05/23 07:36:39;;;;;;;25.85;11.77;;;14.40;91.70;;;;;;5016631;28;87568;-77
2023/05/23 07:39:05;;;;;;;30.83;12.80;;;14.50;91.90;;;;;;5017526;28;88178;-77
2023/05/23 07:41:31;;;;;;;30.40;11.18;;;14.60;92.00;;;;;;5015760;28;88452;-77
2023/05/23 07:43:57;;;;;;;28.88;11.52;;;14.70;91.60;;;;;;5015792;28;87464;-77
2023/05/23 07:46:22;;;;;;;27.58;11.43;;;14.70;91.20;;;;;;5015838;28;87800;-77
2023/05/23 07:48:48;;;;;;;25.42;11.23;;;14.70;90.90;;;;;;5015473;28;87843;-77
2023/05/23 07:51:14;;;;;;;23.77;11.05;;;14.50;90.60;;;;;;5014992;28;89116;-77
2023/05/23 07:53:40;;;;;;;17.38;9.27;;;14.40;90.90;;;;;;5016199;28;89618;-77
2023/05/23 07:56:06;;;;;;;22.02;9.48;;;14.50;90.50;;;;;;5016747;28;87463;-77
2023/05/23 07:58:31;;;;;;;18.45;9.05;;;14.50;90.60;;;;;;5014500;28;89848;-77
2023/05/23 08:00:58;;;;;;;17.58;8.23;;;14.60;90.50;;;;;;5017544;28;88143;-77
2023/05/23 08:03:24;;;;;;;16.05;8.48;;;14.70;90.10;;;;;;5014639;28;91617;-76
2023/05/23 08:05:50;;;;;;;16.02;7.28;;;14.70;89.70;;;;;;5015830;28;87602;-77
2023/05/23 08:08:16;;;;;;;11.50;7.13;;;14.80;89.40;;;;;;5017885;28;87115;-77
2023/05/23 08:10:41;;;;;;;19.83;7.38;;;14.80;89.60;;;;;;5015923;28;87779;-77
2023/05/23 08:13:09;;;;;;;13.93;7.32;;;14.90;89.20;;;;;;5016564;28;87587;-76
2023/05/23 08:15:34;;;;;;;17.05;7.80;;;15.00;88.50;;;;;;5015499;28;88509;-77
2023/05/23 08:18:00;;;;;;;16.45;7.57;;;14.90;89.00;;;;;;5015549;28;87817;-77
2023/05/23 08:20:30;;;;;;;16.70;8.75;;;15.00;88.00;;;;;;5016963;28;88323;-76
2023/05/23 08:22:59;;;;;;;24.85;11.10;;;15.10;87.50;;;;;;5015552;28;88937;-77
2023/05/23 08:25:29;;;;;;;20.20;11.27;;;14.90;88.50;;;;;;5012315;28;87552;-77
2023/05/23 08:27:59;;;;;;;25.60;10.75;;;14.70;88.00;;;;;;5016790;28;87641;-77
2023/05/23 08:30:26;;;;;;;28.13;11.15;;;14.60;89.10;;;;;;5015282;28;88188;-76
2023/05/23 08:32:52;;;;;;;21.02;9.73;;;14.60;88.70;;;;;;5016263;28;88334;-77
2023/05/23 08:35:18;;;;;;;21.80;10.43;;;14.50;89.00;;;;;;5015101;28;87556;-77
2023/05/23 08:37:46;;;;;;;20.73;10.57;;;14.50;89.40;;;;;;5015483;28;87407;-76
2023/05/23 08:40:23;;;;;;;16.00;8.05;;;14.50;89.30;;;;;;5015126;28;89598;-77
2023/05/23 08:42:49;;;;;;;20.02;8.98;;;14.30;87.70;;;;;;5016478;28;89318;-77
2023/05/23 08:45:16;;;;;;;18.27;8.68;;;14.30;89.00;;;;;;5016167;28;87175;-77
2023/05/23 08:47:43;;;;;;;13.35;7.50;;;14.30;90.60;;;;;;5016842;28;87942;-77
2023/05/23 08:50:18;;;;;;;14.13;6.28;;;14.30;88.90;;;;;;5014199;28;91631;-77
2023/05/23 08:52:46;;;;;;;16.33;6.47;;;14.20;88.50;;;;;;5012776;28;87671;-76
2023/05/23 08:55:12;;;;;;;17.25;7.38;;;14.20;88.60;;;;;;5013796;28;87469;-77
2023/05/23 08:57:42;;;;;;;17.52;6.78;;;14.20;88.90;;;;;;5013352;28;87414;-77
2023/05/23 09:00:13;;;;;;;18.13;7.00;;;14.20;87.70;;;;;;5012626;28;89049;-76
2023/05/23 09:02:43;;;;;;;15.48;6.68;;;14.20;88.20;;;;;;5012715;28;88453;-77
2023/05/23 09:05:09;;;;;;;16.75;6.43;;;14.20;87.50;;;;;;5014602;28;88057;-77
2023/05/23 09:07:35;;;;;;;15.88;7.10;;;14.30;87.20;;;;;;5015807;28;87649;-76
2023/05/23 09:10:03;;;;;;;13.75;6.57;;;14.30;87.10;;;;;;5014977;28;89579;-76
2023/05/23 09:12:28;;;;;;;13.02;6.32;;;14.20;86.40;;;;;;5013933;28;89986;-77
2023/05/23 09:14:55;;;;;;;17.95;7.95;;;14.20;87.20;;;;;;5015261;28;87693;-76
2023/05/23 09:17:21;;;;;;;14.48;6.95;;;14.30;86.00;;;;;;5013996;28;89270;-77
2023/05/23 09:19:47;;;;;;;12.95;6.75;;;14.30;86.90;;;;;;5014316;28;88559;-77
2023/05/23 09:22:13;;;;;;;16.10;6.50;;;14.50;86.90;;;;;;5015514;28;88306;-77
2023/05/23 09:24:40;;;;;;;13.57;6.47;;;14.70;85.50;;;;;;5016394;28;87614;-77
2023/05/23 09:27:06;;;;;;;15.82;6.28;;;14.90;83.90;;;;;;5014939;28;90062;-77
2023/05/23 09:29:32;;;;;;;17.55;6.82;;;15.10;84.00;;;;;;5018211;28;89523;-77
2023/05/23 09:32:15;;;;;;;14.63;6.07;;;15.30;81.00;;;;;;5019017;28;88417;-77
2023/05/23 09:34:57;;;;;;;14.30;6.00;;;15.50;79.50;;;;;;5018832;28;87494;-77
2023/05/23 09:37:39;;;;;;;10.02;5.15;;;15.80;81.20;;;;;;5019036;28;87516;-77
2023/05/23 09:40:10;;;;;;;12.93;5.43;;;16.30;79.00;;;;;;5018838;28;88884;-76
2023/05/23 09:42:44;;;;;;;14.35;5.95;;;16.60;76.50;;;;;;5018397;28;88383;-79
2023/05/23 09:45:15;;;;;;;11.27;5.85;;;17.00;75.90;;;;;;5016771;28;87764;-80
2023/05/23 09:47:53;;;;;;;11.07;5.43;;;17.10;70.40;;;;;;5017738;28;87418;-80
2023/05/23 09:50:20;;;;;;;19.25;6.20;;;17.00;70.90;;;;;;5017552;28;89189;-78
2023/05/23 09:52:48;;;;;;;11.27;5.05;;;17.10;72.00;;;;;;5017953;28;88328;-79
2023/05/23 09:55:14;;;;;;;12.05;5.88;;;17.10;71.50;;;;;;5017814;28;88402;-78
2023/05/23 09:57:41;;;;;;;9.70;5.35;;;17.20;72.00;;;;;;5018473;28;87964;-79
2023/05/23 10:00:14;;;;;;;13.40;5.82;;;17.20;73.10;;;;;;5018005;28;88594;-80
2023/05/23 10:02:52;;;;;;;17.65;6.78;;;17.30;70.10;;;;;;5016767;28;88385;-79
2023/05/23 10:05:30;;;;;;;19.88;7.15;;;17.20;70.30;;;;;;5018043;28;87637;-78
2023/05/23 10:08:00;;;;;;;15.68;6.05;;;17.00;71.60;;;;;;5017769;28;87683;-78
2023/05/23 10:10:32;;;;;;;19.23;6.57;;;16.80;70.60;;;;;;5017322;28;89172;-78
2023/05/23 10:13:02;;;;;;;13.90;5.53;;;16.70;70.20;;;;;;5016863;28;88860;-80
2023/05/23 10:15:34;;;;;;;16.95;6.88;;;16.80;71.60;;;;;;5016519;28;87494;-79
2023/05/23 10:18:17;;;;;;;15.20;6.45;;;16.90;71.30;;;;;;5017932;28;87385;-77
2023/05/23 10:20:48;;;;;;;15.27;7.28;;;16.90;71.60;;;;;;5016655;28;90265;-78
2023/05/23 10:23:15;;;;;;;17.85;6.93;;;16.80;72.30;;;;;;5017341;28;88880;-76
2023/05/23 10:25:42;;;;;;;16.77;7.25;;;16.80;70.60;;;;;;5017513;28;88027;-77
2023/05/23 10:28:08;;;;;;;19.08;6.63;;;16.90;72.40;;;;;;5015775;28;89388;-77
2023/05/23 10:30:34;;;;;;;16.08;6.72;;;17.00;73.20;;;;;;5018002;28;87825;-77
2023/05/23 10:33:01;;;;;;;20.83;7.45;;;17.00;70.70;;;;;;5016248;28;90548;-78
2023/05/23 10:35:27;;;;;;;16.30;6.43;;;17.10;71.70;;;;;;5016411;28;87504;-77
2023/05/23 10:37:59;;;;;;;17.48;5.85;;;17.20;70.40;;;;;;5016974;28;86948;-77
2023/05/23 10:41:08;;;;;;;10.70;5.20;;;17.20;69.60;;;;;;5016446;28;88958;-87
2023/05/23 10:43:39;;;;;;;11.27;4.95;;;17.10;70.60;;;;;;5016225;28;87484;-79
2023/05/23 10:46:07;;;;;;;11.32;5.00;;;17.20;69.40;;;;;;5016105;28;88840;-81
2023/05/23 10:48:34;;;;;;;23.00;5.38;;;17.30;69.50;;;;;;5018615;28;87578;-82
2023/05/23 10:51:04;;;;;;;47.50;6.85;;;17.40;71.60;;;;;;5016480;28;87682;-80
2023/05/23 10:53:31;;;;;;;24.85;5.57;;;17.60;69.00;;;;;;5015382;28;91144;-81
2023/05/23 10:55:57;;;;;;;31.67;5.07;;;17.80;70.00;;;;;;5031130;28;87841;-80
2023/05/23 10:58:23;;;;;;;10.30;3.80;;;18.00;69.60;;;;;;5017098;28;87600;-81
2023/05/23 11:00:53;;;;;;;12.90;3.67;;;18.30;68.40;;;;;;5018532;28;91960;-88
2023/05/23 11:03:44;;;;;;;13.57;4.10;;;18.60;69.90;;;;;;5018443;28;88043;-86
2023/05/23 11:06:43;;;;;;;7.35;3.50;;;18.80;68.20;;;;;;5017671;28;87323;-88
2023/05/23 11:09:09;;;;;;;8.38;3.88;;;19.10;66.30;;;;;;5017039;28;87629;-78
2023/05/23 11:12:02;;;;;;;7.35;3.47;;;19.30;66.00;;;;;;5015477;28;90959;-79
2023/05/23 11:14:52;;;;;;;11.30;4.18;;;19.20;65.70;;;;;;5022803;28;91410;-81
2023/05/23 11:17:29;;;;;;;10.48;4.45;;;19.40;64.30;;;;;;5023628;28;87443;-78
2023/05/23 11:20:08;;;;;;;18.60;4.70;;;19.20;66.20;;;;;;5015195;28;89100;-80
2023/05/23 11:22:34;;;;;;;14.80;4.75;;;19.40;65.80;;;;;;5007861;28;91028;-80
2023/05/23 11:25:05;;;;;;;13.48;4.80;;;19.40;65.00;;;;;;5017021;28;89710;-81
2023/05/23 11:27:34;;;;;;;25.13;5.15;;;19.30;61.80;;;;;;5023506;28;88108;-80
2023/05/23 11:30:15;;;;;;;11.82;4.50;;;19.10;64.50;;;;;;5015155;28;89185;-81
2023/05/23 11:32:48;;;;;;;11.60;4.93;;;18.90;64.20;;;;;;5014958;28;91992;-82
2023/05/23 11:35:15;;;;;;;12.35;4.57;;;18.90;65.60;;;;;;5015130;28;90732;-79
2023/05/23 11:37:43;;;;;;;11.23;4.65;;;19.00;64.90;;;;;;5015159;28;88909;-80
2023/05/23 11:40:24;;;;;;;10.13;4.72;;;19.10;64.60;;;;;;5015340;28;89383;-76
2023/05/23 11:42:50;;;;;;;7.78;4.10;;;19.40;63.80;;;;;;5017504;28;88432;-77
2023/05/23 11:45:19;;;;;;;11.75;4.03;;;20.20;60.40;;;;;;5015079;28;89987;-79
2023/05/23 11:47:44;;;;;;;10.02;3.25;;;20.70;61.60;;;;;;5016510;28;87541;-78
2023/05/23 11:50:10;;;;;;;10.43;3.60;;;20.70;60.40;;;;;;5016189;28;87838;-79
2023/05/23 11:52:36;;;;;;;7.45;2.60;;;20.50;59.20;;;;;;5014411;28;91574;-77
2023/05/23 11:55:02;;;;;;;11.55;2.90;;;20.20;56.90;;;;;;5016998;28;87688;-76
2023/05/23 11:57:28;;;;;;;9.82;2.60;;;20.40;58.90;;;;;;5016493;28;87824;-77
2023/05/23 11:59:54;;;;;;;7.60;2.70;;;21.00;58.20;;;;;;5015445;28;87902;-77
2023/05/23 12:02:21;;;;;;;6.40;2.45;;;21.60;53.90;;;;;;5017061;28;89564;-77
2023/05/23 12:04:48;;;;;;;7.28;2.45;;;21.70;57.20;;;;;;5014734;28;92289;-76
2023/05/23 12:07:13;;;;;;;11.20;2.47;;;21.50;56.90;;;;;;5016197;28;87351;-76
2023/05/23 12:09:45;;;;;;;10.77;3.05;;;21.40;54.70;;;;;;5014950;28;88225;-76
2023/05/23 12:12:12;;;;;;;10.80;2.60;;;21.60;55.60;;;;;;5014197;28;87893;-76
2023/05/23 12:14:43;;;;;;;10.55;2.65;;;21.70;54.80;;;;;;5014738;28;88849;-76
2023/05/23 12:17:12;;;;;;;5.65;1.85;;;22.00;54.70;;;;;;5014974;28;87634;-75
2023/05/23 12:19:39;;;;;;;9.18;2.47;;;22.10;51.60;;;;;;5015771;28;86828;-77
2023/05/23 12:22:06;;;;;;;5.22;2.05;;;22.10;52.60;;;;;;5015903;28;88453;-76
2023/05/23 12:24:32;;;;;;;9.90;2.67;;;22.00;53.80;;;;;;5021690;28;94483;-76
2023/05/23 12:27:00;;;;;;;12.00;3.03;;;22.00;55.00;;;;;;5014724;28;88629;-76
2023/05/23 12:29:31;;;;;;;7.72;2.53;;;22.40;55.40;;;;;;5015195;28;88025;-77
2023/05/23 12:32:01;;;;;;;9.45;2.80;;;22.60;53.70;;;;;;5006230;28;89355;-76
2023/05/23 12:34:27;;;;;;;9.55;2.58;;;23.10;51.40;;;;;;5014505;28;88297;-76